createdAt,value
2018-09-12T00:00:50.074Z,99.90
2018-09-12T00:03:19.884Z,99.90
2018-09-12T00:05:49.584Z,99.90
2018-09-12T00:08:19.198Z,99.90
2018-09-12T00:10:48.869Z,99.90
2018-09-12T00:13:18.556Z,99.90
2018-09-12T00:15:48.258Z,99.90
2018-09-12T00:18:22.895Z,99.90
2018-09-12T00:20:52.982Z,99.90
2018-09-12T00:23:22.762Z,99.90
2018-09-12T00:25:52.427Z,99.90
2018-09-12T00:28:22.135Z,99.90
2018-09-12T00:30:51.774Z,99.90
2018-09-12T00:33:21.486Z,99.90
2018-09-12T00:35:51.171Z,99.90
2018-09-12T00:38:21.092Z,99.90
2018-09-12T00:40:51.067Z,99.90
2018-09-12T00:43:20.746Z,99.90
2018-09-12T00:45:50.399Z,99.90
2018-09-12T00:48:20.048Z,99.90
2018-09-12T00:50:49.675Z,99.90
2018-09-12T00:53:19.288Z,99.90
2018-09-12T00:55:49.075Z,99.90
2018-09-12T00:58:18.778Z,99.90
2018-09-12T01:00:48.393Z,99.90
2018-09-12T01:03:18.083Z,99.90
2018-09-12T01:05:47.759Z,99.90
2018-09-12T01:08:17.417Z,99.90
2018-09-12T01:10:47.107Z,99.90
2018-09-12T01:13:17.227Z,99.90
2018-09-12T01:15:46.930Z,99.90
2018-09-12T01:18:18.485Z,99.90
2018-09-12T01:20:49.806Z,99.90
2018-09-12T01:23:20.065Z,99.90
2018-09-12T01:25:49.695Z,99.90
2018-09-12T01:28:19.434Z,99.90
2018-09-12T01:30:49.157Z,99.90
2018-09-12T01:33:18.835Z,99.90
2018-09-12T01:35:48.495Z,99.90
2018-09-12T01:38:18.170Z,99.90
2018-09-12T01:40:47.850Z,99.90
2018-09-12T01:43:17.486Z,99.90
2018-09-12T01:45:47.112Z,99.90
2018-09-12T01:48:16.852Z,99.90
2018-09-12T01:50:46.499Z,99.90
2018-09-12T01:53:16.166Z,99.90
2018-09-12T01:55:45.775Z,99.90
2018-09-12T01:58:15.483Z,99.90
2018-09-12T02:00:45.179Z,99.90
2018-09-12T02:03:14.860Z,99.90
2018-09-12T02:05:44.502Z,99.90
2018-09-12T02:08:14.103Z,99.90
2018-09-12T02:10:43.785Z,99.90
2018-09-12T02:13:13.400Z,99.90
2018-09-12T02:15:43.090Z,99.90
2018-09-12T02:18:12.706Z,99.90
2018-09-12T02:20:42.339Z,99.90
2018-09-12T02:23:11.970Z,99.90
2018-09-12T02:25:41.723Z,99.90
2018-09-12T02:28:11.461Z,99.90
2018-09-12T02:30:41.295Z,99.90
2018-09-12T02:33:11.066Z,99.90
2018-09-12T02:35:45.942Z,99.90
2018-09-12T02:38:15.671Z,99.90
2018-09-12T02:40:45.412Z,99.90
2018-09-12T02:43:15.075Z,99.90
2018-09-12T02:45:44.811Z,99.90
2018-09-12T02:48:14.378Z,99.90
2018-09-12T02:50:44.067Z,99.90
2018-09-12T02:53:13.739Z,99.90
2018-09-12T02:55:43.461Z,99.90
2018-09-12T02:58:13.160Z,99.90
2018-09-12T03:00:42.870Z,99.90
2018-09-12T03:03:12.595Z,99.90
2018-09-12T03:05:42.430Z,99.90
2018-09-12T03:11:13.562Z,99.90
2018-09-12T03:13:43.242Z,99.90
2018-09-12T03:16:13.010Z,99.90
2018-09-12T03:18:42.764Z,99.90
2018-09-12T03:21:12.544Z,99.90
2018-09-12T03:23:42.147Z,99.90
2018-09-12T03:26:11.952Z,99.90
2018-09-12T03:28:41.571Z,99.90
2018-09-12T03:31:11.187Z,99.90
2018-09-12T03:33:40.900Z,99.90
2018-09-12T03:36:10.550Z,99.90
2018-09-12T03:38:40.274Z,99.90
2018-09-12T03:41:09.966Z,99.90
2018-09-12T03:43:39.700Z,99.90
2018-09-12T03:46:09.313Z,99.90
2018-09-12T03:48:38.986Z,99.90
2018-09-12T03:51:08.655Z,99.90
2018-09-12T03:53:38.322Z,99.90
2018-09-12T03:56:08.007Z,99.90
2018-09-12T03:58:37.670Z,99.90
2018-09-12T04:01:07.531Z,99.90
2018-09-12T04:03:37.154Z,99.90
2018-09-12T04:06:07.059Z,99.90
2018-09-12T04:08:36.746Z,99.90
2018-09-12T04:11:06.499Z,99.90
2018-09-12T04:13:36.121Z,99.90
2018-09-12T04:16:05.850Z,99.90
2018-09-12T04:18:35.563Z,99.90
2018-09-12T04:21:05.226Z,99.90
2018-09-12T04:23:34.977Z,99.90
2018-09-12T04:26:04.667Z,99.90
2018-09-12T04:28:34.399Z,99.90
2018-09-12T04:31:04.087Z,99.90
2018-09-12T04:33:33.750Z,99.90
2018-09-12T04:36:03.467Z,99.90
2018-09-12T04:38:33.134Z,99.90
2018-09-12T04:41:02.863Z,99.90
2018-09-12T04:43:32.598Z,99.90
2018-09-12T04:46:02.329Z,99.90
2018-09-12T04:48:32.038Z,99.90
2018-09-12T04:51:01.732Z,99.90
2018-09-12T04:53:31.382Z,99.90
2018-09-12T04:56:01.092Z,99.90
2018-09-12T04:58:30.724Z,99.90
2018-09-12T05:01:00.366Z,99.90
2018-09-12T05:03:29.983Z,99.90
2018-09-12T05:05:59.603Z,99.90
2018-09-12T05:08:29.355Z,99.90
2018-09-12T05:10:59.011Z,99.90
2018-09-12T05:13:28.622Z,99.90
2018-09-12T05:15:58.498Z,99.90
2018-09-12T05:18:28.187Z,99.90
2018-09-12T05:21:01.509Z,99.90
2018-09-12T05:23:31.151Z,99.90
2018-09-12T05:26:01.149Z,99.90
2018-09-12T05:28:30.963Z,99.90
2018-09-12T05:31:00.978Z,99.90
2018-09-12T05:33:30.751Z,99.90
2018-09-12T05:36:00.470Z,99.90
2018-09-12T05:38:30.190Z,99.90
2018-09-12T05:40:59.902Z,99.90
2018-09-12T05:43:29.543Z,99.90
2018-09-12T05:46:00.446Z,99.90
2018-09-12T05:48:30.111Z,99.90
2018-09-12T05:50:59.714Z,99.90
2018-09-12T05:53:29.347Z,99.90
2018-09-12T05:55:59.018Z,99.90
2018-09-12T05:58:28.738Z,99.90
2018-09-12T06:00:58.390Z,99.90
2018-09-12T06:03:28.033Z,99.90
2018-09-12T06:05:57.722Z,99.90
2018-09-12T06:08:27.434Z,99.90
2018-09-12T06:10:57.127Z,99.90
2018-09-12T06:13:26.871Z,99.90
2018-09-12T06:15:56.595Z,99.90
2018-09-12T06:18:26.296Z,99.90
2018-09-12T06:20:55.970Z,99.90
2018-09-12T06:23:25.649Z,99.90
2018-09-12T06:25:55.326Z,99.90
2018-09-12T06:28:25.004Z,99.90
2018-09-12T06:30:54.752Z,99.90
2018-09-12T06:33:24.636Z,99.90
2018-09-12T06:35:55.382Z,99.90
2018-09-12T06:38:44.222Z,99.90
2018-09-12T06:41:13.880Z,99.90
2018-09-12T06:43:43.526Z,99.90
2018-09-12T06:46:13.235Z,99.90
2018-09-12T06:48:43.070Z,99.90
2018-09-12T06:51:12.702Z,99.90
2018-09-12T06:53:42.476Z,99.90
2018-09-12T06:56:12.426Z,99.90
2018-09-12T06:58:41.998Z,99.90
2018-09-12T07:01:11.792Z,98.80
2018-09-12T07:03:41.366Z,94.80
2018-09-12T07:06:10.982Z,87.60
2018-09-12T07:08:40.762Z,80.00
2018-09-12T07:11:10.438Z,70.60
2018-09-12T07:13:40.123Z,68.40
2018-09-12T07:16:09.824Z,69.00
2018-09-12T07:18:39.483Z,65.40
2018-09-12T07:21:09.129Z,60.60
2018-09-12T07:23:38.866Z,58.50
2018-09-12T07:26:08.908Z,57.50
2018-09-12T07:28:38.702Z,57.00
2018-09-12T07:31:08.387Z,57.50
2018-09-12T07:33:38.134Z,56.00
2018-09-12T07:36:07.885Z,54.30
2018-09-12T07:38:37.603Z,53.30
2018-09-12T07:41:11.550Z,53.20
2018-09-12T07:43:41.484Z,52.50
2018-09-12T07:46:11.202Z,55.00
2018-09-12T07:48:40.987Z,56.60
2018-09-12T07:51:10.590Z,55.40
2018-09-12T07:53:40.283Z,55.00
2018-09-12T07:56:10.306Z,55.10
2018-09-12T07:58:39.842Z,54.80
2018-09-12T08:01:09.592Z,53.30
2018-09-12T08:03:39.234Z,52.90
2018-09-12T08:06:09.036Z,55.30
2018-09-12T08:08:38.745Z,55.70
2018-09-12T08:11:08.426Z,53.90
2018-09-12T08:13:38.055Z,54.00
2018-09-12T08:16:08.046Z,52.20
2018-09-12T08:18:38.519Z,52.30
2018-09-12T08:21:08.585Z,51.20
2018-09-12T08:23:38.450Z,52.30
2018-09-12T08:26:08.109Z,51.80
2018-09-12T08:28:37.785Z,50.80
2018-09-12T08:31:07.588Z,50.60
2018-09-12T08:33:37.268Z,49.50
2018-09-12T08:36:07.019Z,50.00
2018-09-12T08:38:36.738Z,50.20
2018-09-12T08:41:06.480Z,48.70
2018-09-12T08:43:36.094Z,48.40
2018-09-12T08:46:05.786Z,47.30
2018-09-12T08:48:35.547Z,47.10
2018-09-12T08:51:05.234Z,45.80
2018-09-12T08:53:34.950Z,46.30
2018-09-12T08:56:04.676Z,47.80
2018-09-12T08:58:34.311Z,48.50
2018-09-12T09:01:04.088Z,46.10
2018-09-12T09:03:33.812Z,46.80
2018-09-12T09:06:03.535Z,46.90
2018-09-12T09:08:33.311Z,48.00
2018-09-12T09:11:03.010Z,49.90
2018-09-12T09:13:32.702Z,50.90
2018-09-12T09:16:02.434Z,50.90
2018-09-12T09:18:32.118Z,51.30
2018-09-12T09:21:01.830Z,50.60
2018-09-12T09:23:31.495Z,49.30
2018-09-12T09:26:01.155Z,49.70
2018-09-12T09:28:30.802Z,48.40
2018-09-12T09:31:00.475Z,46.70
2018-09-12T09:33:30.195Z,46.40
2018-09-12T09:35:59.871Z,49.50
2018-09-12T09:38:29.630Z,51.00
2018-09-12T09:40:59.323Z,48.90
2018-09-12T09:43:29.048Z,46.10
2018-09-12T09:45:58.653Z,46.70
2018-09-12T09:48:28.498Z,45.60
2018-09-12T09:50:58.176Z,45.50
2018-09-12T09:53:27.840Z,46.40
2018-09-12T09:55:59.671Z,49.90
2018-09-12T09:58:29.310Z,49.30
2018-09-12T10:01:04.137Z,48.40
2018-09-12T10:03:38.944Z,47.60
2018-09-12T10:06:13.774Z,47.00
2018-09-12T10:08:48.649Z,48.50
2018-09-12T10:11:18.446Z,47.70
2018-09-12T10:13:48.112Z,44.30
2018-09-12T10:16:17.996Z,45.00
2018-09-12T10:18:47.735Z,46.90
2018-09-12T10:21:17.650Z,45.30
2018-09-12T10:23:47.361Z,45.70
2018-09-12T10:26:17.168Z,44.00
2018-09-12T10:28:46.806Z,42.80
2018-09-12T10:31:16.470Z,43.10
2018-09-12T10:33:46.139Z,41.90
2018-09-12T10:36:15.802Z,40.80
2018-09-12T10:38:45.509Z,41.60
2018-09-12T10:41:15.254Z,40.40
2018-09-12T10:43:44.910Z,40.50
2018-09-12T10:46:14.589Z,41.30
2018-09-12T10:48:44.367Z,39.90
2018-09-12T10:51:14.115Z,40.50
2018-09-12T10:53:43.795Z,38.30
2018-09-12T10:56:13.493Z,38.00
2018-09-12T10:58:43.118Z,36.70
2018-09-12T11:01:12.760Z,36.70
2018-09-12T11:03:42.518Z,38.60
2018-09-12T11:06:12.282Z,37.60
2018-09-12T11:08:41.934Z,37.10
2018-09-12T11:11:11.735Z,35.80
2018-09-12T11:13:41.455Z,36.60
2018-09-12T11:16:16.969Z,34.60
2018-09-12T11:18:46.627Z,33.20
2018-09-12T11:21:16.306Z,34.90
2018-09-12T11:23:45.976Z,34.30
2018-09-12T11:26:22.997Z,35.40
2018-09-12T11:28:52.982Z,36.20
2018-09-12T11:31:22.681Z,34.70
2018-09-12T11:33:52.326Z,33.40
2018-09-12T11:39:40.525Z,31.90
2018-09-12T11:42:10.256Z,32.70
2018-09-12T11:44:39.875Z,33.60
2018-09-12T11:47:09.569Z,32.00
2018-09-12T11:49:39.234Z,31.00
2018-09-12T11:52:08.859Z,31.90
2018-09-12T11:54:38.535Z,31.90
2018-09-12T11:57:08.478Z,33.80
2018-09-12T11:59:38.078Z,33.90
2018-09-12T12:02:08.065Z,31.20
2018-09-12T12:04:41.490Z,28.40
2018-09-12T12:07:23.168Z,28.00
2018-09-12T12:09:53.763Z,28.80
2018-09-12T12:12:23.366Z,30.00
2018-09-12T12:14:58.680Z,30.50
2018-09-12T12:17:38.795Z,32.40
2018-09-12T12:20:10.519Z,32.00
2018-09-12T12:22:40.150Z,29.80
2018-09-12T12:25:09.899Z,32.00
2018-09-12T12:27:39.796Z,28.00
2018-09-12T12:30:09.711Z,25.20
2018-09-12T12:32:39.372Z,25.10
2018-09-12T12:35:09.166Z,24.90
2018-09-12T12:37:38.951Z,26.20
2018-09-12T12:40:08.619Z,25.90
2018-09-12T12:42:38.361Z,25.20
2018-09-12T12:45:08.049Z,25.10
2018-09-12T12:47:37.670Z,24.90
2018-09-12T12:50:23.778Z,24.30
2018-09-12T12:52:53.539Z,23.80
2018-09-12T12:55:23.294Z,23.50
2018-09-12T12:57:54.718Z,23.40
2018-09-12T13:00:25.192Z,23.20
2018-09-12T13:02:54.878Z,23.60
2018-09-12T13:05:24.560Z,24.40
2018-09-12T13:07:54.270Z,24.50
2018-09-12T13:10:24.049Z,23.90
2018-09-12T13:12:55.391Z,25.20
2018-09-12T13:15:25.377Z,25.60
2018-09-12T13:17:55.378Z,25.60
2018-09-12T13:20:25.168Z,24.30
2018-09-12T13:22:55.106Z,25.40
2018-09-12T13:25:27.066Z,25.70
2018-09-12T13:27:57.001Z,26.10
2018-09-12T13:30:26.657Z,25.10
2018-09-12T13:32:56.675Z,25.40
2018-09-12T13:35:26.679Z,25.50
2018-09-12T13:37:56.422Z,25.40
2018-09-12T13:40:26.826Z,25.30
2018-09-12T13:42:56.631Z,24.60
2018-09-12T13:45:26.423Z,25.70
2018-09-12T13:47:56.434Z,25.90
2018-09-12T13:50:26.302Z,25.90
2018-09-12T13:52:56.091Z,28.10
2018-09-12T13:55:26.130Z,27.10
2018-09-12T13:57:55.961Z,26.80
2018-09-12T14:00:32.682Z,26.10
2018-09-12T14:03:03.750Z,26.40
2018-09-12T14:05:33.731Z,26.80
2018-09-12T14:08:03.580Z,26.20
2018-09-12T14:10:46.430Z,25.80
2018-09-12T14:13:16.142Z,25.40
2018-09-12T14:15:45.813Z,25.50
2018-09-12T14:18:31.634Z,24.70
2018-09-12T14:21:01.278Z,24.20
2018-09-12T14:23:31.004Z,24.30
2018-09-12T14:26:00.643Z,24.00
2018-09-12T14:28:30.797Z,24.70
2018-09-12T14:31:04.003Z,24.50
2018-09-12T14:33:33.644Z,24.00
2018-09-12T14:36:03.425Z,24.50
2018-09-12T14:38:33.796Z,23.90
2018-09-12T14:41:03.498Z,23.90
2018-09-12T14:43:33.390Z,24.70
2018-09-12T14:46:03.374Z,24.80
2018-09-12T14:48:33.304Z,25.70
2018-09-12T14:51:03.200Z,25.10
2018-09-12T14:53:35.057Z,24.80
2018-09-12T14:56:05.231Z,24.80
2018-09-12T14:58:35.275Z,25.50
2018-09-12T15:01:05.198Z,24.80
2018-09-12T15:03:34.975Z,24.70
2018-09-12T15:06:04.704Z,24.50
2018-09-12T15:08:34.518Z,24.60
2018-09-12T15:14:12.945Z,25.20
2018-09-12T15:16:43.153Z,25.10
2018-09-12T15:19:13.748Z,25.80
2018-09-12T15:21:43.494Z,26.20
2018-09-12T15:24:13.241Z,26.10
2018-09-12T15:26:42.875Z,25.80
2018-09-12T15:29:12.653Z,25.90
2018-09-12T15:31:42.365Z,26.30
2018-09-12T15:34:12.044Z,26.30
2018-09-12T15:36:42.847Z,26.00
2018-09-12T15:39:13.052Z,25.70
2018-09-12T15:41:42.947Z,25.70
2018-09-12T15:44:12.618Z,26.70
2018-09-12T15:46:42.275Z,26.40
2018-09-12T15:49:11.909Z,27.10
2018-09-12T15:51:41.670Z,27.20
2018-09-12T15:54:11.321Z,27.40
2018-09-12T15:56:41.031Z,27.00
2018-09-12T15:59:10.787Z,27.90
2018-09-12T16:05:03.392Z,28.90
2018-09-12T16:07:33.091Z,29.90
2018-09-12T16:10:02.746Z,30.30
2018-09-12T16:12:32.439Z,31.20
2018-09-12T16:15:02.292Z,31.10
2018-09-12T16:17:31.982Z,31.20
2018-09-12T16:20:01.643Z,31.90
2018-09-12T16:22:31.343Z,31.70
2018-09-12T16:25:03.070Z,32.30
2018-09-12T16:27:32.790Z,32.40
2018-09-12T16:30:02.414Z,33.40
2018-09-12T16:32:32.109Z,33.20
2018-09-12T16:35:01.746Z,33.10
2018-09-12T16:37:31.566Z,33.30
2018-09-12T16:40:01.546Z,34.10
2018-09-12T16:42:31.266Z,34.80
2018-09-12T16:45:02.148Z,35.40
2018-09-12T16:47:31.810Z,36.40
2018-09-12T16:50:01.777Z,36.90
2018-09-12T16:52:31.494Z,37.40
2018-09-12T16:55:01.759Z,38.10
2018-09-12T16:57:45.281Z,39.80
2018-09-12T17:00:15.162Z,41.80
2018-09-12T17:02:44.925Z,42.10
2018-09-12T17:05:14.702Z,43.20
2018-09-12T17:07:44.403Z,44.10
2018-09-12T17:10:14.092Z,44.90
2018-09-12T17:12:43.766Z,45.60
2018-09-12T17:15:13.534Z,46.40
2018-09-12T17:17:43.529Z,47.40
2018-09-12T17:20:13.209Z,49.10
2018-09-12T17:22:42.868Z,50.40
2018-09-12T17:25:12.815Z,50.50
2018-09-12T17:27:42.806Z,51.70
2018-09-12T17:30:13.560Z,51.70
2018-09-12T17:32:43.270Z,52.80
2018-09-12T17:35:13.458Z,53.00
2018-09-12T17:37:43.293Z,54.20
2018-09-12T17:40:12.982Z,54.70
2018-09-12T17:42:42.671Z,55.80
2018-09-12T17:45:12.601Z,55.70
2018-09-12T17:47:42.322Z,57.10
2018-09-12T17:50:12.105Z,57.50
2018-09-12T17:52:41.763Z,57.80
2018-09-12T17:55:11.482Z,59.00
2018-09-12T17:57:41.132Z,59.30
2018-09-12T18:00:10.911Z,59.70
2018-09-12T18:02:40.590Z,60.70
2018-09-12T18:05:10.445Z,61.50
2018-09-12T18:07:40.251Z,62.30
2018-09-12T18:10:16.147Z,63.30
2018-09-12T18:12:45.824Z,64.30
2018-09-12T18:15:15.506Z,65.30
2018-09-12T18:17:45.195Z,66.70
2018-09-12T18:20:15.007Z,68.50
2018-09-12T18:22:44.646Z,69.20
2018-09-12T18:25:43.374Z,70.50
2018-09-12T18:28:13.043Z,72.00
2018-09-12T18:30:43.478Z,73.40
2018-09-12T18:33:13.166Z,76.40
2018-09-12T18:35:42.874Z,78.40
2018-09-12T18:38:12.684Z,79.70
2018-09-12T18:40:42.341Z,82.00
2018-09-12T18:43:12.135Z,85.80
2018-09-12T18:45:41.735Z,88.10
2018-09-12T18:48:11.411Z,90.50
2018-09-12T18:50:41.131Z,91.70
2018-09-12T18:53:10.780Z,92.60
2018-09-12T18:55:40.571Z,93.50
2018-09-12T18:58:10.305Z,94.50
2018-09-12T19:00:39.959Z,95.50
2018-09-12T19:03:09.619Z,96.70
2018-09-12T19:05:39.327Z,98.30
2018-09-12T19:08:09.091Z,99.80
2018-09-12T19:10:42.830Z,99.90
2018-09-12T19:13:12.535Z,99.90
2018-09-12T19:15:52.587Z,99.90
2018-09-12T19:18:22.312Z,99.90
2018-09-12T19:20:52.094Z,99.90
2018-09-12T19:23:21.827Z,99.90
2018-09-12T19:25:51.574Z,99.90
2018-09-12T19:28:21.251Z,99.90
2018-09-12T19:30:51.049Z,99.90
2018-09-12T19:33:20.706Z,99.90
2018-09-12T19:35:50.550Z,99.90
2018-09-12T19:38:25.330Z,99.90
2018-09-12T19:40:55.060Z,99.90
2018-09-12T19:43:24.853Z,99.90
2018-09-12T19:45:54.725Z,99.90
2018-09-12T19:48:24.540Z,99.90
2018-09-12T19:51:15.134Z,99.90
2018-09-12T19:53:45.780Z,99.90
2018-09-12T19:56:23.103Z,99.90
2018-09-12T19:58:53.279Z,99.90
2018-09-12T20:01:23.314Z,99.90
2018-09-12T20:03:53.557Z,99.90
2018-09-12T20:06:23.310Z,99.90
2018-09-12T20:08:53.291Z,99.90
2018-09-12T20:11:23.349Z,99.90
2018-09-12T20:13:53.074Z,99.90
2018-09-12T20:16:22.789Z,99.90
2018-09-12T20:18:56.338Z,99.90
2018-09-12T20:21:38.751Z,99.90
2018-09-12T20:24:09.510Z,99.90
2018-09-12T20:26:55.065Z,99.90
2018-09-12T20:29:27.272Z,99.90
2018-09-12T20:32:07.631Z,99.90
2018-09-12T20:34:37.612Z,99.90
2018-09-12T20:37:07.244Z,99.90
2018-09-12T20:39:37.069Z,99.90
2018-09-12T20:42:12.554Z,99.90
2018-09-12T20:44:42.331Z,99.90
2018-09-12T20:47:15.729Z,99.90
2018-09-12T20:49:45.442Z,99.90
2018-09-12T20:52:26.934Z,99.90
2018-09-12T20:54:56.695Z,99.90
2018-09-12T20:57:26.473Z,99.90
2018-09-12T20:59:56.299Z,99.90
2018-09-12T21:02:35.849Z,99.90
2018-09-12T21:05:05.594Z,99.90
2018-09-12T21:07:35.327Z,99.90
2018-09-12T21:10:05.414Z,99.90
2018-09-12T21:12:35.029Z,99.90
2018-09-12T21:15:04.723Z,99.90
2018-09-12T21:17:34.416Z,99.90
2018-09-12T21:20:04.054Z,99.90
2018-09-12T21:22:33.732Z,99.90
2018-09-12T21:25:03.626Z,99.90
2018-09-12T21:27:33.359Z,99.90
2018-09-12T21:30:03.066Z,99.90
2018-09-12T21:32:33.051Z,99.90
2018-09-12T21:35:02.814Z,99.90
2018-09-12T21:37:40.003Z,99.90
2018-09-12T21:40:09.803Z,99.90
2018-09-12T21:42:39.438Z,99.90
2018-09-12T21:45:09.170Z,99.90
2018-09-12T21:47:51.209Z,99.90
2018-09-12T21:50:20.962Z,99.90
2018-09-12T21:52:50.647Z,99.90
2018-09-12T21:55:25.899Z,99.90
2018-09-12T21:57:55.618Z,99.90
2018-09-12T22:00:25.445Z,99.90
2018-09-12T22:02:56.244Z,99.90
2018-09-12T22:05:25.863Z,99.90
2018-09-12T22:07:55.540Z,99.90
2018-09-12T22:10:29.462Z,99.90
2018-09-12T22:12:59.118Z,99.90
2018-09-12T22:15:28.851Z,99.90
2018-09-12T22:17:58.669Z,99.90
2018-09-12T22:20:28.321Z,99.90
2018-09-12T22:22:57.910Z,99.90
2018-09-12T22:25:27.627Z,99.90
2018-09-12T22:27:57.245Z,99.90
2018-09-12T22:30:55.479Z,99.90
2018-09-12T22:33:25.324Z,99.90
2018-09-12T22:35:55.522Z,99.90
2018-09-12T22:38:25.152Z,99.90
2018-09-12T22:40:54.896Z,99.90
2018-09-12T22:43:42.586Z,99.90
2018-09-12T22:49:20.486Z,99.90
2018-09-12T22:51:50.327Z,99.90
2018-09-12T22:54:20.025Z,99.90
2018-09-12T22:56:49.694Z,99.90
2018-09-12T22:59:19.460Z,99.90
2018-09-12T23:01:49.218Z,99.90
2018-09-12T23:04:18.911Z,99.90
2018-09-12T23:06:48.786Z,99.90
2018-09-12T23:09:18.432Z,99.90
2018-09-12T23:11:48.086Z,99.90
2018-09-12T23:14:17.743Z,99.90
2018-09-12T23:16:47.402Z,99.90
2018-09-12T23:19:17.054Z,99.90
2018-09-12T23:21:46.630Z,99.90
2018-09-12T23:24:16.319Z,99.90
2018-09-12T23:26:46.223Z,99.90
2018-09-12T23:29:15.961Z,99.90
2018-09-12T23:31:45.754Z,99.90
2018-09-12T23:34:15.710Z,99.90
2018-09-12T23:36:45.382Z,99.90
2018-09-12T23:39:15.321Z,99.90
2018-09-12T23:41:45.087Z,99.90
2018-09-12T23:44:15.770Z,99.90
2018-09-12T23:46:45.476Z,99.90
2018-09-12T23:49:15.343Z,99.90
2018-09-12T23:51:44.974Z,99.90
2018-09-12T23:54:14.738Z,99.90
2018-09-12T23:56:44.426Z,99.90
2018-09-12T23:59:16.207Z,99.90
